createdAt,value
2019-01-25T00:00:35.609Z,44.27
2019-01-25T00:03:03.454Z,42.98
2019-01-25T00:05:29.831Z,45.10
2019-01-25T00:07:55.871Z,49.48
2019-01-25T00:10:21.944Z,42.98
2019-01-25T00:12:48.007Z,43.77
2019-01-25T00:15:14.245Z,46.37
2019-01-25T00:17:40.316Z,42.65
2019-01-25T00:20:11.103Z,46.13
2019-01-25T00:22:37.219Z,45.30
2019-01-25T00:25:04.432Z,44.35
2019-01-25T00:27:30.550Z,42.53
2019-01-25T00:29:56.628Z,43.02
2019-01-25T00:32:22.682Z,41.90
2019-01-25T00:34:48.727Z,46.28
2019-01-25T00:37:15.208Z,53.40
2019-01-25T00:39:41.381Z,51.67
2019-01-25T00:42:07.425Z,51.00
2019-01-25T00:44:33.663Z,55.55
2019-01-25T00:46:59.771Z,56.85
2019-01-25T00:49:26.298Z,53.68
2019-01-25T00:51:52.347Z,58.38
2019-01-25T00:54:18.387Z,55.73
2019-01-25T00:56:44.604Z,53.42
2019-01-25T00:59:10.661Z,53.95
2019-01-25T01:01:37.032Z,52.90
2019-01-25T01:04:03.646Z,55.33
2019-01-25T01:06:29.691Z,56.58
2019-01-25T01:08:55.758Z,55.93
2019-01-25T01:11:21.834Z,54.75
2019-01-25T01:13:47.872Z,55.03
2019-01-25T01:16:14.003Z,51.53
2019-01-25T01:18:40.035Z,50.83
2019-01-25T01:21:13.357Z,52.77
2019-01-25T01:23:39.465Z,53.50
2019-01-25T01:26:05.630Z,50.15
2019-01-25T01:28:31.676Z,52.70
2019-01-25T01:30:57.741Z,50.58
2019-01-25T01:33:24.059Z,48.92
2019-01-25T01:35:51.317Z,51.37
2019-01-25T01:38:17.436Z,50.90
2019-01-25T01:40:43.878Z,51.92
2019-01-25T01:43:10.042Z,50.27
2019-01-25T01:45:37.172Z,54.27
2019-01-25T01:48:03.618Z,49.88
2019-01-25T01:50:30.042Z,51.33
2019-01-25T01:53:00.411Z,52.80
2019-01-25T01:55:26.513Z,51.65
2019-01-25T01:57:53.067Z,48.70
2019-01-25T02:00:21.652Z,51.65
2019-01-25T02:02:49.775Z,50.78
2019-01-25T02:05:17.172Z,53.38
2019-01-25T02:07:45.405Z,52.80
2019-01-25T02:10:14.469Z,49.93
2019-01-25T02:12:40.528Z,54.65
2019-01-25T02:15:09.388Z,51.92
2019-01-25T02:17:35.443Z,50.90
2019-01-25T02:20:02.305Z,49.80
2019-01-25T02:22:28.388Z,48.20
2019-01-25T02:24:54.724Z,52.65
2019-01-25T02:27:20.775Z,52.48
2019-01-25T02:29:46.808Z,56.10
2019-01-25T02:32:12.847Z,52.03
2019-01-25T02:34:38.908Z,47.17
2019-01-25T02:37:04.948Z,49.80
2019-01-25T02:39:31.026Z,50.08
2019-01-25T02:41:57.060Z,50.90
2019-01-25T02:44:23.100Z,48.02
2019-01-25T02:46:51.737Z,48.98
2019-01-25T02:49:17.963Z,49.10
2019-01-25T02:51:44.044Z,49.15
2019-01-25T02:54:10.130Z,48.78
2019-01-25T02:56:37.438Z,51.10
2019-01-25T02:59:04.794Z,50.92
2019-01-25T03:01:30.916Z,47.65
2019-01-25T03:03:56.958Z,51.58
2019-01-25T03:06:23.010Z,48.03
2019-01-25T03:08:49.380Z,54.55
2019-01-25T03:11:15.421Z,50.30
2019-01-25T03:13:41.461Z,53.70
2019-01-25T03:16:07.592Z,53.52
2019-01-25T03:18:33.723Z,53.60
2019-01-25T03:20:59.766Z,51.05
2019-01-25T03:23:25.826Z,53.50
2019-01-25T03:25:51.867Z,50.73
2019-01-25T03:28:17.899Z,50.17
2019-01-25T03:30:43.953Z,53.50
2019-01-25T03:33:10.055Z,51.95
2019-01-25T03:35:36.156Z,53.50
2019-01-25T03:38:02.301Z,50.58
2019-01-25T03:40:28.455Z,50.35
2019-01-25T03:42:54.797Z,53.90
2019-01-25T03:45:21.498Z,53.87
2019-01-25T03:47:47.773Z,51.25
2019-01-25T03:50:19.586Z,49.20
2019-01-25T03:52:45.613Z,48.50
2019-01-25T03:55:12.888Z,47.00
2019-01-25T03:57:38.937Z,45.67
2019-01-25T04:00:08.777Z,49.70
2019-01-25T04:02:34.832Z,46.18
2019-01-25T04:05:00.880Z,45.45
2019-01-25T04:07:26.913Z,47.48
2019-01-25T04:09:53.087Z,48.23
2019-01-25T04:12:19.128Z,47.17
2019-01-25T04:14:45.175Z,45.78
2019-01-25T04:17:11.212Z,51.00
2019-01-25T04:19:37.244Z,48.87
2019-01-25T04:22:03.786Z,47.33
2019-01-25T04:24:29.909Z,45.90
2019-01-25T04:26:55.939Z,43.92
2019-01-25T04:29:21.978Z,46.95
2019-01-25T04:31:48.206Z,48.60
2019-01-25T04:34:14.244Z,48.87
2019-01-25T04:36:40.300Z,46.02
2019-01-25T04:39:07.079Z,46.83
2019-01-25T04:41:33.105Z,45.48
2019-01-25T04:43:59.184Z,43.73
2019-01-25T04:46:25.261Z,45.15
2019-01-25T04:48:51.343Z,42.62
2019-01-25T04:51:17.399Z,44.93
2019-01-25T04:53:43.462Z,42.62
2019-01-25T04:56:09.624Z,44.95
2019-01-25T04:58:35.691Z,44.20
2019-01-25T05:01:04.730Z,46.90
2019-01-25T05:03:30.778Z,44.13
2019-01-25T05:05:56.808Z,43.17
2019-01-25T05:08:23.099Z,44.05
2019-01-25T05:10:49.162Z,45.05
2019-01-25T05:13:15.492Z,44.98
2019-01-25T05:15:41.658Z,42.78
2019-01-25T05:18:07.965Z,46.00
2019-01-25T05:20:34.113Z,45.20
2019-01-25T05:23:05.234Z,42.62
2019-01-25T05:25:31.632Z,43.35
2019-01-25T05:28:15.570Z,42.23
2019-01-25T05:30:58.749Z,41.80
2019-01-25T05:33:24.833Z,40.70
2019-01-25T05:35:51.016Z,44.40
2019-01-25T05:38:17.084Z,45.00
2019-01-25T05:40:43.136Z,45.75
2019-01-25T05:43:10.380Z,44.03
2019-01-25T05:45:42.207Z,43.35
2019-01-25T05:48:08.246Z,41.42
2019-01-25T05:50:34.337Z,43.90
2019-01-25T05:53:00.647Z,46.23
2019-01-25T05:55:26.696Z,44.00
2019-01-25T05:57:58.479Z,44.58
2019-01-25T06:00:29.239Z,43.10
2019-01-25T06:03:00.972Z,43.10
2019-01-25T06:05:27.000Z,46.37
2019-01-25T06:07:53.106Z,43.58
2019-01-25T06:10:19.216Z,44.37
2019-01-25T06:12:50.511Z,44.67
2019-01-25T06:15:16.568Z,44.13
2019-01-25T06:17:42.586Z,42.85
2019-01-25T06:20:10.604Z,45.28
2019-01-25T06:22:36.705Z,42.23
2019-01-25T06:25:05.373Z,43.80
2019-01-25T06:27:37.549Z,45.38
2019-01-25T06:30:12.386Z,45.05
2019-01-25T06:32:38.525Z,43.52
2019-01-25T06:35:06.489Z,42.65
2019-01-25T06:37:32.593Z,43.52
2019-01-25T06:39:58.676Z,37.95
2019-01-25T06:42:24.848Z,39.58
2019-01-25T06:44:51.081Z,38.88
2019-01-25T06:47:17.205Z,44.90
2019-01-25T06:49:43.375Z,44.27
2019-01-25T06:52:10.675Z,41.70
2019-01-25T06:54:36.690Z,42.15
2019-01-25T06:57:04.760Z,45.45
2019-01-25T06:59:32.716Z,47.78
2019-01-25T07:02:01.091Z,51.02
2019-01-25T07:04:27.210Z,48.60
2019-01-25T07:06:53.250Z,50.75
2019-01-25T07:09:19.336Z,46.90
2019-01-25T07:11:51.499Z,46.35
2019-01-25T07:14:13.728Z,52.60
2019-01-25T07:16:39.824Z,47.60
2019-01-25T07:19:05.893Z,49.25
2019-01-25T07:21:31.957Z,47.53
2019-01-25T07:23:58.024Z,48.30
2019-01-25T07:26:24.088Z,57.00
2019-01-25T07:28:50.460Z,50.48
2019-01-25T07:31:16.512Z,52.67
2019-01-25T07:33:42.722Z,52.13
2019-01-25T07:36:08.849Z,52.58
2019-01-25T07:38:35.074Z,45.63
2019-01-25T07:41:01.152Z,50.03
2019-01-25T07:43:27.270Z,47.73
2019-01-25T07:45:53.337Z,48.45
2019-01-25T07:48:19.523Z,42.60
2019-01-25T07:50:45.632Z,41.45
2019-01-25T07:53:11.721Z,47.45
2019-01-25T07:55:37.885Z,43.92
2019-01-25T07:58:04.113Z,47.13
2019-01-25T08:00:30.237Z,46.10
2019-01-25T08:02:56.370Z,44.15
2019-01-25T08:05:22.396Z,44.30
2019-01-25T08:07:48.459Z,43.98
2019-01-25T08:10:16.982Z,44.38
2019-01-25T08:12:43.089Z,39.55
2019-01-25T08:15:15.989Z,40.58
2019-01-25T08:17:42.059Z,69.15
2019-01-25T08:20:10.373Z,37.95
2019-01-25T08:22:36.423Z,38.13
2019-01-25T08:25:04.154Z,39.63
2019-01-25T08:27:30.375Z,36.48
2019-01-25T08:29:56.598Z,36.68
2019-01-25T08:32:24.062Z,36.28
2019-01-25T08:34:50.258Z,39.08
2019-01-25T08:37:16.431Z,35.58
2019-01-25T08:39:42.593Z,36.93
2019-01-25T08:42:15.245Z,41.73
2019-01-25T08:44:36.829Z,39.42
2019-01-25T08:47:03.008Z,35.37
2019-01-25T08:49:29.368Z,41.20
2019-01-25T08:51:55.527Z,38.13
2019-01-25T08:54:22.955Z,37.83
2019-01-25T08:56:49.189Z,88.17
2019-01-25T08:59:15.683Z,40.40
2019-01-25T09:01:42.100Z,37.67
2019-01-25T09:04:08.177Z,38.08
2019-01-25T09:06:34.213Z,38.80
2019-01-25T09:09:00.264Z,37.08
2019-01-25T09:11:26.344Z,39.00
2019-01-25T09:13:52.393Z,37.63
2019-01-25T09:16:18.438Z,35.90
2019-01-25T09:18:44.525Z,37.35
2019-01-25T09:21:10.763Z,37.65
2019-01-25T09:23:36.777Z,42.15
2019-01-25T09:26:02.936Z,39.78
2019-01-25T09:28:29.241Z,40.90
2019-01-25T09:30:55.288Z,43.05
2019-01-25T09:33:21.426Z,38.13
2019-01-25T09:35:47.490Z,40.08
2019-01-25T09:38:13.711Z,40.40
2019-01-25T09:40:39.976Z,36.17
2019-01-25T09:43:06.014Z,36.50
2019-01-25T09:45:32.135Z,35.68
2019-01-25T09:47:58.288Z,35.00
2019-01-25T09:50:24.428Z,37.03
2019-01-25T09:52:50.491Z,33.30
2019-01-25T09:55:18.641Z,64.70
2019-01-25T09:57:44.788Z,38.13
2019-01-25T10:00:22.953Z,36.27
2019-01-25T10:02:49.004Z,32.00
2019-01-25T10:05:15.027Z,35.08
2019-01-25T10:07:41.170Z,35.30
2019-01-25T10:10:08.494Z,32.53
2019-01-25T10:12:38.832Z,36.83
2019-01-25T10:15:06.404Z,35.65
2019-01-25T10:17:32.451Z,33.98
2019-01-25T10:19:58.482Z,34.00
2019-01-25T10:22:24.611Z,40.98
2019-01-25T10:24:50.690Z,37.88
2019-01-25T10:27:16.723Z,34.78
2019-01-25T10:29:42.764Z,35.60
2019-01-25T10:32:08.999Z,35.33
2019-01-25T10:34:35.082Z,36.65
2019-01-25T10:37:01.121Z,40.70
2019-01-25T10:39:27.284Z,41.02
2019-01-25T10:41:53.338Z,44.40
2019-01-25T10:44:19.364Z,43.80
2019-01-25T10:46:45.596Z,46.02
2019-01-25T10:49:11.654Z,43.52
2019-01-25T10:51:37.697Z,42.97
2019-01-25T10:54:04.256Z,43.70
2019-01-25T10:56:30.465Z,46.20
2019-01-25T10:58:56.509Z,47.75
2019-01-25T11:01:22.555Z,47.62
2019-01-25T11:03:48.855Z,49.80
2019-01-25T11:06:17.723Z,50.20
2019-01-25T11:08:43.945Z,47.65
2019-01-25T11:11:10.869Z,48.42
2019-01-25T11:13:36.904Z,50.63
2019-01-25T11:16:03.772Z,50.80
2019-01-25T11:18:29.906Z,53.05
2019-01-25T11:20:55.924Z,51.90
2019-01-25T11:23:21.955Z,52.93
2019-01-25T11:25:48.323Z,50.35
2019-01-25T11:28:14.452Z,47.80
2019-01-25T11:30:40.564Z,47.20
2019-01-25T11:33:06.804Z,48.30
2019-01-25T11:35:33.055Z,44.23
2019-01-25T11:37:59.167Z,45.00
2019-01-25T11:40:36.869Z,42.40
2019-01-25T11:43:08.425Z,44.30
2019-01-25T11:45:31.373Z,43.55
2019-01-25T11:47:58.721Z,44.42
2019-01-25T11:50:24.902Z,48.10
2019-01-25T11:52:51.008Z,44.13
2019-01-25T11:55:17.903Z,44.55
2019-01-25T11:57:44.045Z,50.17
2019-01-25T12:00:22.558Z,44.08
2019-01-25T12:02:49.528Z,45.78
2019-01-25T12:05:18.456Z,50.43
2019-01-25T12:07:44.746Z,43.98
2019-01-25T12:10:13.781Z,43.13
2019-01-25T12:12:39.976Z,45.60
2019-01-25T12:15:10.345Z,45.25
2019-01-25T12:17:36.392Z,45.40
2019-01-25T12:20:06.048Z,47.00
2019-01-25T12:22:32.216Z,45.17
2019-01-25T12:24:58.337Z,47.95
2019-01-25T12:27:24.375Z,49.42
2019-01-25T12:29:50.408Z,51.77
2019-01-25T12:32:18.385Z,51.50
2019-01-25T12:34:44.419Z,50.58
2019-01-25T12:37:10.459Z,49.45
2019-01-25T12:39:36.538Z,51.90
2019-01-25T12:42:03.175Z,52.75
2019-01-25T12:44:29.219Z,58.80
2019-01-25T12:46:55.249Z,56.45
2019-01-25T12:49:21.484Z,55.45
2019-01-25T12:51:47.595Z,60.73
2019-01-25T12:54:13.738Z,62.10
2019-01-25T12:56:39.796Z,61.40
2019-01-25T12:59:05.942Z,61.35
2019-01-25T13:01:35.000Z,58.85
2019-01-25T13:04:00.110Z,59.83
2019-01-25T13:06:26.147Z,62.00
2019-01-25T13:08:52.293Z,62.13
2019-01-25T13:11:18.340Z,59.50
2019-01-25T13:13:44.381Z,63.03
2019-01-25T13:16:10.433Z,61.20
2019-01-25T13:18:36.541Z,57.40
2019-01-25T13:21:02.993Z,58.02
2019-01-25T13:23:29.088Z,58.00
2019-01-25T13:25:55.274Z,56.63
2019-01-25T13:28:21.343Z,64.40
2019-01-25T13:30:47.477Z,62.25
2019-01-25T13:33:13.654Z,63.40
2019-01-25T13:35:39.902Z,64.67
2019-01-25T13:38:06.041Z,66.67
2019-01-25T13:40:32.547Z,62.62
2019-01-25T13:42:58.789Z,67.85
2019-01-25T13:45:25.177Z,69.12
2019-01-25T13:47:51.493Z,64.50
2019-01-25T13:50:19.856Z,72.47
2019-01-25T13:52:45.972Z,69.72
2019-01-25T13:55:14.114Z,69.45
2019-01-25T13:57:40.233Z,64.57
2019-01-25T14:00:15.806Z,64.27
2019-01-25T14:02:44.246Z,68.50
2019-01-25T14:05:10.475Z,74.07
2019-01-25T14:07:36.605Z,74.22
2019-01-25T14:10:15.110Z,72.40
2019-01-25T14:12:41.263Z,77.03
2019-01-25T14:15:08.205Z,73.73
2019-01-25T14:17:34.328Z,75.40
2019-01-25T14:20:00.539Z,77.82
2019-01-25T14:22:26.685Z,82.65
2019-01-25T14:24:52.732Z,79.80
2019-01-25T14:27:18.776Z,81.85
2019-01-25T14:29:44.812Z,84.17
2019-01-25T14:32:10.986Z,86.87
2019-01-25T14:34:37.058Z,82.62
2019-01-25T14:37:03.540Z,84.15
2019-01-25T14:39:29.644Z,83.90
2019-01-25T14:41:55.685Z,89.62
2019-01-25T14:44:21.735Z,89.50
2019-01-25T14:46:47.913Z,84.95
2019-01-25T14:49:13.972Z,86.57
2019-01-25T14:51:40.023Z,88.00
2019-01-25T14:54:06.067Z,93.82
2019-01-25T14:56:32.129Z,92.55
2019-01-25T14:58:58.174Z,92.80
2019-01-25T15:01:24.191Z,89.25
2019-01-25T15:03:50.262Z,92.33
2019-01-25T15:06:16.312Z,92.57
2019-01-25T15:08:42.525Z,93.20
2019-01-25T15:11:08.597Z,94.90
2019-01-25T15:13:34.641Z,91.40
2019-01-25T15:16:00.797Z,92.12
2019-01-25T15:18:26.845Z,95.35
2019-01-25T15:20:53.044Z,89.67
2019-01-25T15:23:19.099Z,96.30
2019-01-25T15:25:45.281Z,94.80
2019-01-25T15:28:11.358Z,92.22
2019-01-25T15:30:37.414Z,84.75
2019-01-25T15:33:04.016Z,80.10
2019-01-25T15:35:30.162Z,79.58
2019-01-25T15:37:56.211Z,78.12
2019-01-25T15:40:22.352Z,77.53
2019-01-25T15:42:48.436Z,73.25
2019-01-25T15:45:16.470Z,71.40
2019-01-25T15:47:42.656Z,76.05
2019-01-25T15:50:15.250Z,71.05
2019-01-25T15:52:41.488Z,69.25
2019-01-25T15:55:08.613Z,70.80
2019-01-25T15:57:34.749Z,77.22
2019-01-25T16:00:00.945Z,68.57
2019-01-25T16:02:26.973Z,68.23
2019-01-25T16:04:53.110Z,63.30
2019-01-25T16:07:19.364Z,63.73
2019-01-25T16:09:45.409Z,65.05
2019-01-25T16:12:11.467Z,59.98
2019-01-25T16:14:37.556Z,63.13
2019-01-25T16:17:03.608Z,66.53
2019-01-25T16:19:29.684Z,65.42
2019-01-25T16:21:56.322Z,66.60
2019-01-25T16:24:22.516Z,65.28
2019-01-25T16:26:49.613Z,64.72
2019-01-25T16:29:15.860Z,68.35
2019-01-25T16:31:41.951Z,65.62
2019-01-25T16:34:07.988Z,65.22
2019-01-25T16:36:34.143Z,65.75
2019-01-25T16:39:00.168Z,65.97
2019-01-25T16:41:26.220Z,65.65
2019-01-25T16:43:52.357Z,65.08
2019-01-25T16:46:18.402Z,70.13
2019-01-25T16:48:44.439Z,61.83
2019-01-25T16:51:10.505Z,69.87
2019-01-25T16:53:36.728Z,70.00
2019-01-25T16:56:03.646Z,66.00
2019-01-25T16:58:29.801Z,66.33
2019-01-25T17:00:55.849Z,63.98
2019-01-25T17:03:21.916Z,62.53
2019-01-25T17:05:48.129Z,64.15
2019-01-25T17:08:14.199Z,65.62
2019-01-25T17:10:41.209Z,65.57
2019-01-25T17:13:07.817Z,65.70
2019-01-25T17:15:34.053Z,69.03
2019-01-25T17:18:00.900Z,67.32
2019-01-25T17:20:28.723Z,63.90
2019-01-25T17:22:54.963Z,66.92
2019-01-25T17:25:20.997Z,63.48
2019-01-25T17:27:47.703Z,62.67
2019-01-25T17:30:25.721Z,62.20
2019-01-25T17:32:53.880Z,59.77
2019-01-25T17:35:19.918Z,62.08
2019-01-25T17:37:46.082Z,59.35
2019-01-25T17:40:15.477Z,65.50
2019-01-25T17:42:41.676Z,61.58
2019-01-25T17:45:08.747Z,64.85
2019-01-25T17:47:34.820Z,65.37
2019-01-25T17:50:01.283Z,68.02
2019-01-25T17:52:27.316Z,64.82
2019-01-25T17:54:53.380Z,62.83
2019-01-25T17:57:19.558Z,64.40
2019-01-25T17:59:45.632Z,63.97
2019-01-25T18:02:11.711Z,64.58
2019-01-25T18:04:37.764Z,59.60
2019-01-25T18:07:03.800Z,65.87
2019-01-25T18:09:29.865Z,65.75
2019-01-25T18:11:56.009Z,62.23
2019-01-25T18:14:22.172Z,64.55
2019-01-25T18:16:48.248Z,62.78
2019-01-25T18:19:14.419Z,60.88
2019-01-25T18:21:40.615Z,64.05
2019-01-25T18:24:06.684Z,64.70
2019-01-25T18:26:32.765Z,62.60
2019-01-25T18:28:59.095Z,61.13
2019-01-25T18:31:26.988Z,59.03
2019-01-25T18:33:53.209Z,54.35
2019-01-25T18:36:19.295Z,58.33
2019-01-25T18:38:45.459Z,61.03
2019-01-25T18:41:11.495Z,58.13
2019-01-25T18:43:37.607Z,61.37
2019-01-25T18:46:16.396Z,57.62
2019-01-25T18:48:42.508Z,59.95
2019-01-25T18:51:08.617Z,58.13
2019-01-25T18:53:34.685Z,67.12
2019-01-25T18:56:00.961Z,59.38
2019-01-25T18:58:27.105Z,60.50
2019-01-25T19:00:54.197Z,63.97
2019-01-25T19:03:20.236Z,60.52
2019-01-25T19:05:46.298Z,60.70
2019-01-25T19:08:12.366Z,64.32
2019-01-25T19:10:38.393Z,59.93
2019-01-25T19:13:04.454Z,61.35
2019-01-25T19:15:31.153Z,63.08
2019-01-25T19:18:00.348Z,58.60
2019-01-25T19:20:26.429Z,63.45
2019-01-25T19:22:52.482Z,59.27
2019-01-25T19:25:18.812Z,56.60
2019-01-25T19:27:44.871Z,56.70
2019-01-25T19:30:20.558Z,56.80
2019-01-25T19:32:46.976Z,62.45
2019-01-25T19:35:13.525Z,59.03
2019-01-25T19:37:39.606Z,61.37
2019-01-25T19:40:09.538Z,65.20
2019-01-25T19:42:35.670Z,64.70
2019-01-25T19:45:11.678Z,64.05
2019-01-25T19:47:32.748Z,67.70
2019-01-25T19:49:58.903Z,63.95
2019-01-25T19:52:24.959Z,73.22
2019-01-25T19:54:51.053Z,63.58
2019-01-25T19:57:17.396Z,61.83
2019-01-25T19:59:43.467Z,71.00
2019-01-25T20:02:09.654Z,71.25
2019-01-25T20:04:36.039Z,70.55
2019-01-25T20:07:02.566Z,72.07
2019-01-25T20:09:28.656Z,71.03
2019-01-25T20:11:54.759Z,77.35
2019-01-25T20:14:20.928Z,70.62
2019-01-25T20:16:46.945Z,73.87
2019-01-25T20:19:13.103Z,72.45
2019-01-25T20:21:39.227Z,72.25
2019-01-25T20:24:05.265Z,77.30
2019-01-25T20:26:31.351Z,77.27
2019-01-25T20:28:57.573Z,79.20
2019-01-25T20:31:23.617Z,73.57
2019-01-25T20:33:49.827Z,77.65
2019-01-25T20:36:15.914Z,76.53
2019-01-25T20:38:41.947Z,82.55
2019-01-25T20:41:07.976Z,83.82
2019-01-25T20:43:34.052Z,84.62
2019-01-25T20:46:00.272Z,88.80
2019-01-25T20:48:26.503Z,90.63
2019-01-25T20:50:52.929Z,94.40
2019-01-25T20:53:18.964Z,87.70
2019-01-25T20:55:45.051Z,87.12
2019-01-25T20:58:11.095Z,93.37
2019-01-25T21:00:38.729Z,89.15
2019-01-25T21:03:06.697Z,95.42
2019-01-25T21:05:32.841Z,97.40
2019-01-25T21:07:59.149Z,91.33
2019-01-25T21:10:25.419Z,95.30
2019-01-25T21:12:52.289Z,96.20
2019-01-25T21:15:20.681Z,95.40
2019-01-25T21:17:47.251Z,94.77
2019-01-25T21:20:18.662Z,101.82
2019-01-25T21:22:44.705Z,91.67
2019-01-25T21:25:10.944Z,94.58
2019-01-25T21:27:37.349Z,98.27
2019-01-25T21:30:08.291Z,91.30
2019-01-25T21:32:34.399Z,95.28
2019-01-25T21:35:00.509Z,100.62
2019-01-25T21:37:26.632Z,105.00
2019-01-25T21:39:52.728Z,97.70
2019-01-25T21:42:18.788Z,101.55
2019-01-25T21:44:44.868Z,92.37
2019-01-25T21:47:10.920Z,93.70
2019-01-25T21:49:36.952Z,98.25
2019-01-25T21:52:02.997Z,104.07
2019-01-25T21:54:29.042Z,95.60
2019-01-25T21:56:55.076Z,94.60
2019-01-25T21:59:21.408Z,100.55
2019-01-25T22:01:47.514Z,99.15
2019-01-25T22:04:15.491Z,98.20
2019-01-25T22:06:41.520Z,97.15
2019-01-25T22:09:07.736Z,96.90
2019-01-25T22:11:34.029Z,96.08
2019-01-25T22:14:00.056Z,92.70
2019-01-25T22:16:26.090Z,91.15
2019-01-25T22:18:52.328Z,94.13
2019-01-25T22:21:18.622Z,97.80
2019-01-25T22:23:44.694Z,87.35
2019-01-25T22:26:10.786Z,91.07
2019-01-25T22:28:36.848Z,89.42
2019-01-25T22:31:02.929Z,90.05
2019-01-25T22:33:29.053Z,89.55
2019-01-25T22:35:56.246Z,90.40
2019-01-25T22:38:22.417Z,84.13
2019-01-25T22:40:48.660Z,88.83
2019-01-25T22:43:14.747Z,94.67
2019-01-25T22:45:42.063Z,85.53
2019-01-25T22:48:08.288Z,76.42
2019-01-25T22:50:34.314Z,90.32
2019-01-25T22:53:00.594Z,83.25
2019-01-25T22:55:26.732Z,89.70
2019-01-25T22:57:52.757Z,83.82
2019-01-25T23:00:59.675Z,83.37
2019-01-25T23:03:44.962Z,84.75
2019-01-25T23:06:37.084Z,81.53
2019-01-25T23:09:15.971Z,86.20
2019-01-25T23:11:42.020Z,76.97
2019-01-25T23:14:08.356Z,79.05
2019-01-25T23:16:34.506Z,74.50
2019-01-25T23:19:00.829Z,82.90
2019-01-25T23:21:26.945Z,78.62
2019-01-25T23:23:53.090Z,76.30
2019-01-25T23:26:19.253Z,71.82
2019-01-25T23:28:45.335Z,72.85
2019-01-25T23:31:11.476Z,66.22
2019-01-25T23:33:37.605Z,71.62
2019-01-25T23:36:03.740Z,72.20
2019-01-25T23:38:29.782Z,78.63
2019-01-25T23:40:55.925Z,69.67
2019-01-25T23:43:21.970Z,74.35
2019-01-25T23:45:47.998Z,67.72
2019-01-25T23:48:14.052Z,65.53
2019-01-25T23:50:40.111Z,62.45
2019-01-25T23:53:06.162Z,66.12
2019-01-25T23:55:32.661Z,58.42
2019-01-25T23:57:58.684Z,62.65
